sensor_id;sensor_type;location;lat;lon;timestamp;pressure;altitude;pressure_sealevel;temperature;humidity
21706;BME280;11014;53.076;18.208;2023-09-19T00:02:23;100342.13;;;25.21;52.90
21706;BME280;11014;53.076;18.208;2023-09-19T00:04:52;100347.63;;;25.21;52.66
21706;BME280;11014;53.076;18.208;2023-09-19T00:07:21;100346.47;;;25.22;52.81
21706;BME280;11014;53.076;18.208;2023-09-19T00:09:51;100346.00;;;25.20;52.97
21706;BME280;11014;53.076;18.208;2023-09-19T00:12:19;100357.00;;;25.20;52.99
21706;BME280;11014;53.076;18.208;2023-09-19T00:14:48;100351.34;;;25.16;52.83
21706;BME280;11014;53.076;18.208;2023-09-19T00:17:16;100356.28;;;25.11;53.12
21706;BME280;11014;53.076;18.208;2023-09-19T00:19:45;100355.78;;;25.09;53.36
21706;BME280;11014;53.076;18.208;2023-09-19T00:22:14;100359.19;;;25.06;53.63
21706;BME280;11014;53.076;18.208;2023-09-19T00:24:44;100357.09;;;25.03;53.64
21706;BME280;11014;53.076;18.208;2023-09-19T00:27:14;100359.06;;;25.02;53.92
21706;BME280;11014;53.076;18.208;2023-09-19T00:29:42;100362.47;;;24.99;54.00
21706;BME280;11014;53.076;18.208;2023-09-19T00:32:11;100369.44;;;24.97;54.10
21706;BME280;11014;53.076;18.208;2023-09-19T00:34:40;100360.69;;;24.95;54.41
21706;BME280;11014;53.076;18.208;2023-09-19T00:37:08;100366.19;;;24.95;54.27
21706;BME280;11014;53.076;18.208;2023-09-19T00:39:39;100368.00;;;24.91;54.46
21706;BME280;11014;53.076;18.208;2023-09-19T00:42:09;100366.59;;;24.85;54.82
21706;BME280;11014;53.076;18.208;2023-09-19T00:45:12;100365.66;;;24.81;55.10
21706;BME280;11014;53.076;18.208;2023-09-19T00:47:46;100361.91;;;24.76;55.38
21706;BME280;11014;53.076;18.208;2023-09-19T00:50:21;100361.44;;;24.74;55.45
21706;BME280;11014;53.076;18.208;2023-09-19T00:52:53;100359.03;;;24.73;56.17
21706;BME280;11014;53.076;18.208;2023-09-19T00:55:26;100350.00;;;24.72;55.89
21706;BME280;11014;53.076;18.208;2023-09-19T00:57:58;100353.53;;;24.73;56.24
21706;BME280;11014;53.076;18.208;2023-09-19T01:00:27;100346.09;;;24.73;56.19
21706;BME280;11014;53.076;18.208;2023-09-19T01:02:58;100337.84;;;24.73;56.38
21706;BME280;11014;53.076;18.208;2023-09-19T01:05:27;100340.78;;;24.68;56.56
21706;BME280;11014;53.076;18.208;2023-09-19T01:07:56;100335.44;;;24.72;56.46
21706;BME280;11014;53.076;18.208;2023-09-19T01:10:25;100344.00;;;24.70;56.69
21706;BME280;11014;53.076;18.208;2023-09-19T01:13:15;100343.34;;;24.73;57.03
21706;BME280;11014;53.076;18.208;2023-09-19T01:15:55;100344.00;;;24.70;57.47
21706;BME280;11014;53.076;18.208;2023-09-19T01:29:38;100319.41;;;24.83;56.92
21706;BME280;11014;53.076;18.208;2023-09-19T01:32:08;100315.22;;;24.76;57.44
21706;BME280;11014;53.076;18.208;2023-09-19T01:37:18;100311.50;;;24.81;57.27
21706;BME280;11014;53.076;18.208;2023-09-19T01:40:02;100303.19;;;24.90;57.38
21706;BME280;11014;53.076;18.208;2023-09-19T01:43:05;100304.38;;;24.89;57.42
21706;BME280;11014;53.076;18.208;2023-09-19T01:51:07;100322.63;;;24.85;57.51
21706;BME280;11014;53.076;18.208;2023-09-19T01:53:51;100317.13;;;24.85;57.68
21706;BME280;11014;53.076;18.208;2023-09-19T01:56:26;100321.38;;;24.73;57.80
21706;BME280;11014;53.076;18.208;2023-09-19T01:58:59;100324.31;;;24.68;58.11
21706;BME280;11014;53.076;18.208;2023-09-19T02:01:33;100321.56;;;24.68;58.05
21706;BME280;11014;53.076;18.208;2023-09-19T02:04:04;100320.91;;;24.71;57.91
21706;BME280;11014;53.076;18.208;2023-09-19T02:06:32;100326.72;;;24.70;57.81
21706;BME280;11014;53.076;18.208;2023-09-19T02:09:02;100328.34;;;24.71;57.89
21706;BME280;11014;53.076;18.208;2023-09-19T02:11:32;100336.91;;;24.69;57.71
21706;BME280;11014;53.076;18.208;2023-09-19T02:14:01;100348.56;;;24.66;58.36
21706;BME280;11014;53.076;18.208;2023-09-19T02:16:31;100337.44;;;24.63;58.45
21706;BME280;11014;53.076;18.208;2023-09-19T02:19:00;100327.09;;;24.60;58.63
21706;BME280;11014;53.076;18.208;2023-09-19T02:21:29;100324.69;;;24.58;58.60
21706;BME280;11014;53.076;18.208;2023-09-19T02:24:00;100321.47;;;24.56;58.97
21706;BME280;11014;53.076;18.208;2023-09-19T02:26:28;100312.75;;;24.54;58.97
21706;BME280;11014;53.076;18.208;2023-09-19T02:28:57;100308.88;;;24.55;59.27
21706;BME280;11014;53.076;18.208;2023-09-19T02:31:25;100324.38;;;24.51;59.54
21706;BME280;11014;53.076;18.208;2023-09-19T02:33:57;100327.31;;;24.46;59.62
21706;BME280;11014;53.076;18.208;2023-09-19T02:36:26;100320.91;;;24.42;59.85
21706;BME280;11014;53.076;18.208;2023-09-19T02:38:55;100323.81;;;24.37;60.13
21706;BME280;11014;53.076;18.208;2023-09-19T02:41:24;100326.72;;;24.32;60.39
21706;BME280;11014;53.076;18.208;2023-09-19T02:43:54;100325.31;;;24.26;60.85
21706;BME280;11014;53.076;18.208;2023-09-19T02:46:23;100336.97;;;24.23;61.17
21706;BME280;11014;53.076;18.208;2023-09-19T02:48:52;100345.53;;;24.13;62.12
21706;BME280;11014;53.076;18.208;2023-09-19T02:51:20;100350.53;;;24.02;62.88
21706;BME280;11014;53.076;18.208;2023-09-19T02:53:50;100346.50;;;24.00;63.32
21706;BME280;11014;53.076;18.208;2023-09-19T02:56:20;100359.56;;;24.03;63.20
21706;BME280;11014;53.076;18.208;2023-09-19T02:58:49;100364.59;;;24.01;63.29
21706;BME280;11014;53.076;18.208;2023-09-19T03:01:18;100358.59;;;23.99;63.43
21706;BME280;11014;53.076;18.208;2023-09-19T03:03:48;100357.63;;;24.03;63.44
21706;BME280;11014;53.076;18.208;2023-09-19T03:06:16;100363.44;;;24.02;63.19
21706;BME280;11014;53.076;18.208;2023-09-19T03:08:47;100348.59;;;23.94;63.67
21706;BME280;11014;53.076;18.208;2023-09-19T03:11:17;100350.38;;;23.99;63.98
21706;BME280;11014;53.076;18.208;2023-09-19T03:13:53;100368.63;;;23.86;66.10
21706;BME280;11014;53.076;18.208;2023-09-19T03:16:23;100371.72;;;23.68;66.98
21706;BME280;11014;53.076;18.208;2023-09-19T03:18:58;100384.31;;;23.51;68.13
21706;BME280;11014;53.076;18.208;2023-09-19T03:21:30;100380.75;;;23.42;68.74
21706;BME280;11014;53.076;18.208;2023-09-19T03:23:59;100364.59;;;23.32;69.34
21706;BME280;11014;53.076;18.208;2023-09-19T03:26:28;100364.56;;;23.24;70.14
21706;BME280;11014;53.076;18.208;2023-09-19T03:28:56;100362.28;;;23.17;70.74
21706;BME280;11014;53.076;18.208;2023-09-19T03:31:25;100368.28;;;23.19;70.70
21706;BME280;11014;53.076;18.208;2023-09-19T03:33:54;100368.75;;;23.21;70.61
21706;BME280;11014;53.076;18.208;2023-09-19T03:36:22;100365.53;;;23.19;70.97
21706;BME280;11014;53.076;18.208;2023-09-19T03:38:51;100363.91;;;23.18;71.18
21706;BME280;11014;53.076;18.208;2023-09-19T03:41:20;100370.84;;;23.16;71.42
21706;BME280;11014;53.076;18.208;2023-09-19T03:43:50;100367.94;;;23.21;71.45
21706;BME280;11014;53.076;18.208;2023-09-19T03:46:19;100362.63;;;23.24;71.28
21706;BME280;11014;53.076;18.208;2023-09-19T03:48:50;100363.13;;;23.26;71.38
21706;BME280;11014;53.076;18.208;2023-09-19T03:51:18;100359.25;;;23.27;71.88
21706;BME280;11014;53.076;18.208;2023-09-19T03:53:47;100361.22;;;23.35;71.44
21706;BME280;11014;53.076;18.208;2023-09-19T03:56:17;100358.34;;;23.40;71.40
21706;BME280;11014;53.076;18.208;2023-09-19T03:58:48;100365.44;;;23.41;71.51
21706;BME280;11014;53.076;18.208;2023-09-19T04:01:16;100368.19;;;23.41;71.61
21706;BME280;11014;53.076;18.208;2023-09-19T04:03:52;100373.66;;;23.41;71.51
21706;BME280;11014;53.076;18.208;2023-09-19T04:06:23;100371.41;;;23.43;71.76
21706;BME280;11014;53.076;18.208;2023-09-19T04:08:53;100370.41;;;23.48;71.76
21706;BME280;11014;53.076;18.208;2023-09-19T04:11:22;100372.69;;;23.46;71.35
21706;BME280;11014;53.076;18.208;2023-09-19T04:13:51;100365.91;;;23.43;71.73
21706;BME280;11014;53.076;18.208;2023-09-19T04:16:20;100358.81;;;23.42;71.52
21706;BME280;11014;53.076;18.208;2023-09-19T04:18:52;100360.44;;;23.43;71.82
21706;BME280;11014;53.076;18.208;2023-09-19T04:21:20;100354.94;;;23.43;71.86
21706;BME280;11014;53.076;18.208;2023-09-19T04:23:49;100360.91;;;23.45;71.93
21706;BME280;11014;53.076;18.208;2023-09-19T04:26:17;100349.94;;;23.45;71.90
21706;BME280;11014;53.076;18.208;2023-09-19T04:28:46;100351.06;;;23.44;71.83
21706;BME280;11014;53.076;18.208;2023-09-19T04:31:14;100345.59;;;23.44;71.70
21706;BME280;11014;53.076;18.208;2023-09-19T04:33:44;100341.56;;;23.42;72.20
21706;BME280;11014;53.076;18.208;2023-09-19T04:36:12;100342.19;;;23.39;71.99
21706;BME280;11014;53.076;18.208;2023-09-19T04:39:02;100339.59;;;23.34;72.01
21706;BME280;11014;53.076;18.208;2023-09-19T04:41:33;100356.84;;;23.34;72.31
21706;BME280;11014;53.076;18.208;2023-09-19T04:44:02;100351.03;;;23.27;72.47
21706;BME280;11014;53.076;18.208;2023-09-19T04:46:31;100358.63;;;23.22;72.56
21706;BME280;11014;53.076;18.208;2023-09-19T04:49:01;100359.06;;;23.15;72.68
21706;BME280;11014;53.076;18.208;2023-09-19T04:51:30;100369.41;;;23.18;72.79
21706;BME280;11014;53.076;18.208;2023-09-19T04:54:03;100355.03;;;23.13;72.86
21706;BME280;11014;53.076;18.208;2023-09-19T04:56:32;100361.78;;;23.07;72.75
21706;BME280;11014;53.076;18.208;2023-09-19T04:59:25;100351.34;;;23.17;72.97
21706;BME280;11014;53.076;18.208;2023-09-19T05:01:54;100353.91;;;23.05;72.87
21706;BME280;11014;53.076;18.208;2023-09-19T05:04:23;100343.41;;;22.98;72.97
21706;BME280;11014;53.076;18.208;2023-09-19T05:06:51;100347.94;;;22.94;73.36
21706;BME280;11014;53.076;18.208;2023-09-19T05:09:20;100344.53;;;22.89;73.76
21706;BME280;11014;53.076;18.208;2023-09-19T05:11:48;100352.25;;;22.87;73.75
21706;BME280;11014;53.076;18.208;2023-09-19T05:14:17;100349.66;;;22.82;74.10
21706;BME280;11014;53.076;18.208;2023-09-19T05:16:45;100349.66;;;22.82;74.14
21706;BME280;11014;53.076;18.208;2023-09-19T05:19:15;100348.22;;;22.84;74.11
21706;BME280;11014;53.076;18.208;2023-09-19T05:21:43;100349.03;;;22.85;73.83
21706;BME280;11014;53.076;18.208;2023-09-19T05:24:12;100358.22;;;22.89;73.63
21706;BME280;11014;53.076;18.208;2023-09-19T05:26:42;100343.91;;;22.92;73.88
21706;BME280;11014;53.076;18.208;2023-09-19T05:29:11;100351.47;;;22.95;73.69
21706;BME280;11014;53.076;18.208;2023-09-19T05:31:39;100352.59;;;22.94;73.85
21706;BME280;11014;53.076;18.208;2023-09-19T05:34:09;100357.25;;;22.93;73.75
21706;BME280;11014;53.076;18.208;2023-09-19T05:36:38;100360.34;;;22.92;73.80
21706;BME280;11014;53.076;18.208;2023-09-19T05:39:08;100349.38;;;22.92;73.85
21706;BME280;11014;53.076;18.208;2023-09-19T05:41:37;100349.38;;;22.92;74.04
21706;BME280;11014;53.076;18.208;2023-09-19T05:44:08;100365.19;;;22.95;73.80
21706;BME280;11014;53.076;18.208;2023-09-19T05:46:37;100366.78;;;22.96;73.81
21706;BME280;11014;53.076;18.208;2023-09-19T05:49:06;100370.66;;;22.95;74.11
21706;BME280;11014;53.076;18.208;2023-09-19T05:51:34;100379.97;;;22.85;74.41
21706;BME280;11014;53.076;18.208;2023-09-19T05:54:04;100380.63;;;22.91;74.27
21706;BME280;11014;53.076;18.208;2023-09-19T05:56:33;100389.63;;;22.83;74.76
21706;BME280;11014;53.076;18.208;2023-09-19T05:59:02;100378.84;;;22.86;74.44
21706;BME280;11014;53.076;18.208;2023-09-19T06:01:32;100386.09;;;22.91;74.27
21706;BME280;11014;53.076;18.208;2023-09-19T06:04:03;100370.00;;;22.98;74.10
21706;BME280;11014;53.076;18.208;2023-09-19T06:06:32;100378.09;;;23.03;73.74
21706;BME280;11014;53.076;18.208;2023-09-19T06:09:07;100374.34;;;22.99;73.86
21706;BME280;11014;53.076;18.208;2023-09-19T06:11:36;100362.28;;;23.00;73.67
21706;BME280;11014;53.076;18.208;2023-09-19T06:14:06;100371.28;;;22.92;73.66
21706;BME280;11014;53.076;18.208;2023-09-19T06:16:34;100376.91;;;22.95;73.39
21706;BME280;11014;53.076;18.208;2023-09-19T06:19:03;100381.56;;;22.78;74.25
21706;BME280;11014;53.076;18.208;2023-09-19T06:21:34;100381.25;;;22.88;73.86
21706;BME280;11014;53.076;18.208;2023-09-19T06:24:03;100391.56;;;22.91;73.72
21706;BME280;11014;53.076;18.208;2023-09-19T06:26:32;100384.34;;;22.95;73.57
21706;BME280;11014;53.076;18.208;2023-09-19T06:29:01;100403.53;;;22.95;73.24
21706;BME280;11014;53.076;18.208;2023-09-19T06:31:35;100401.41;;;22.92;73.02
21706;BME280;11014;53.076;18.208;2023-09-19T06:34:03;100410.09;;;22.85;73.21
21706;BME280;11014;53.076;18.208;2023-09-19T06:36:32;100410.91;;;22.86;72.78
21706;BME280;11014;53.076;18.208;2023-09-19T06:39:01;100424.09;;;22.84;72.38
21706;BME280;11014;53.076;18.208;2023-09-19T06:41:32;100420.88;;;22.51;73.46
21706;BME280;11014;53.076;18.208;2023-09-19T06:44:06;100415.31;;;22.65;72.57
21706;BME280;11014;53.076;18.208;2023-09-19T06:46:35;100421.78;;;22.69;72.73
21706;BME280;11014;53.076;18.208;2023-09-19T06:49:07;100425.00;;;22.71;72.57
21706;BME280;11014;53.076;18.208;2023-09-19T06:51:38;100426.66;;;22.80;72.12
21706;BME280;11014;53.076;18.208;2023-09-19T06:54:07;100429.59;;;22.84;72.29
21706;BME280;11014;53.076;18.208;2023-09-19T06:56:36;100431.66;;;22.78;72.11
21706;BME280;11014;53.076;18.208;2023-09-19T06:59:05;100427.97;;;22.83;72.05
21706;BME280;11014;53.076;18.208;2023-09-19T07:01:35;100441.50;;;22.88;71.79
21706;BME280;11014;53.076;18.208;2023-09-19T07:04:05;100438.28;;;22.86;71.94
21706;BME280;11014;53.076;18.208;2023-09-19T07:06:34;100443.63;;;22.91;71.83
21706;BME280;11014;53.076;18.208;2023-09-19T07:09:04;100453.56;;;22.87;71.65
21706;BME280;11014;53.076;18.208;2023-09-19T07:11:32;100445.19;;;22.83;71.99
21706;BME280;11014;53.076;18.208;2023-09-19T07:14:02;100449.09;;;22.91;71.89
21706;BME280;11014;53.076;18.208;2023-09-19T07:16:31;100455.25;;;22.96;71.71
21706;BME280;11014;53.076;18.208;2023-09-19T07:19:00;100447.34;;;22.95;71.57
21706;BME280;11014;53.076;18.208;2023-09-19T07:21:30;100453.16;;;23.02;71.38
21706;BME280;11014;53.076;18.208;2023-09-19T07:24:00;100459.50;;;23.11;71.08
21706;BME280;11014;53.076;18.208;2023-09-19T07:26:29;100458.34;;;23.12;70.75
21706;BME280;11014;53.076;18.208;2023-09-19T07:28:57;100454.34;;;23.18;70.59
21706;BME280;11014;53.076;18.208;2023-09-19T07:31:26;100460.31;;;23.20;70.74
21706;BME280;11014;53.076;18.208;2023-09-19T07:33:56;100456.78;;;23.28;70.55
21706;BME280;11014;53.076;18.208;2023-09-19T07:36:24;100455.84;;;23.33;70.60
21706;BME280;11014;53.076;18.208;2023-09-19T07:38:53;100466.84;;;23.41;70.54
21706;BME280;11014;53.076;18.208;2023-09-19T07:41:40;100461.19;;;23.38;69.80
21706;BME280;11014;53.076;18.208;2023-09-19T07:44:09;100464.91;;;23.50;69.88
21706;BME280;11014;53.076;18.208;2023-09-19T07:46:40;100475.56;;;23.43;69.44
21706;BME280;11014;53.076;18.208;2023-09-19T07:49:09;100473.56;;;23.35;69.70
21706;BME280;11014;53.076;18.208;2023-09-19T07:51:39;100470.22;;;23.38;69.41
21706;BME280;11014;53.076;18.208;2023-09-19T07:54:08;100468.13;;;23.52;69.47
21706;BME280;11014;53.076;18.208;2023-09-19T07:56:38;100473.63;;;23.52;68.37
21706;BME280;11014;53.076;18.208;2023-09-19T07:59:07;100472.50;;;23.53;68.15
21706;BME280;11014;53.076;18.208;2023-09-19T08:01:38;100495.56;;;23.52;68.46
21706;BME280;11014;53.076;18.208;2023-09-19T08:04:08;100480.22;;;23.43;68.24
21706;BME280;11014;53.076;18.208;2023-09-19T08:06:37;100487.34;;;23.44;68.35
21706;BME280;11014;53.076;18.208;2023-09-19T08:09:07;100495.22;;;23.45;68.30
21706;BME280;11014;53.076;18.208;2023-09-19T08:11:39;100500.22;;;23.43;69.19
21706;BME280;11014;53.076;18.208;2023-09-19T08:14:08;100499.91;;;23.45;68.62
21706;BME280;11014;53.076;18.208;2023-09-19T08:16:37;100505.22;;;23.41;68.66
21706;BME280;11014;53.076;18.208;2023-09-19T08:19:06;100506.28;;;23.32;68.56
21706;BME280;11014;53.076;18.208;2023-09-19T08:21:34;100507.66;;;23.12;69.49
21706;BME280;11014;53.076;18.208;2023-09-19T08:24:03;100506.75;;;23.25;69.08
21706;BME280;11014;53.076;18.208;2023-09-19T08:26:33;100506.09;;;23.28;69.14
21706;BME280;11014;53.076;18.208;2023-09-19T08:29:02;100508.69;;;23.33;69.09
21706;BME280;11014;53.076;18.208;2023-09-19T08:31:33;100519.59;;;23.47;68.67
21706;BME280;11014;53.076;18.208;2023-09-19T08:34:02;100509.38;;;23.30;69.04
21706;BME280;11014;53.076;18.208;2023-09-19T08:36:31;100511.03;;;23.40;68.99
21706;BME280;11014;53.076;18.208;2023-09-19T08:38:59;100522.66;;;23.45;68.78
21706;BME280;11014;53.076;18.208;2023-09-19T08:41:29;100525.22;;;23.50;69.22
21706;BME280;11014;53.076;18.208;2023-09-19T08:44:00;100531.88;;;23.49;69.08
21706;BME280;11014;53.076;18.208;2023-09-19T08:46:34;100529.44;;;23.56;68.67
21706;BME280;11014;53.076;18.208;2023-09-19T08:49:15;100532.84;;;23.62;69.07
21706;BME280;11014;53.076;18.208;2023-09-19T08:52:32;100531.75;;;23.89;68.49
21706;BME280;11014;53.076;18.208;2023-09-19T08:55:06;100538.53;;;23.83;67.83
21706;BME280;11014;53.076;18.208;2023-09-19T08:57:39;100543.22;;;23.74;68.43
21706;BME280;11014;53.076;18.208;2023-09-19T09:00:11;100544.00;;;23.83;67.94
21706;BME280;11014;53.076;18.208;2023-09-19T09:02:43;100543.88;;;23.88;67.95
21706;BME280;11014;53.076;18.208;2023-09-19T09:05:12;100541.00;;;24.01;68.02
21706;BME280;11014;53.076;18.208;2023-09-19T09:07:43;100547.81;;;24.12;67.24
21706;BME280;11014;53.076;18.208;2023-09-19T09:10:12;100538.91;;;24.24;66.35
21706;BME280;11014;53.076;18.208;2023-09-19T09:12:41;100535.34;;;24.32;66.34
21706;BME280;11014;53.076;18.208;2023-09-19T09:15:12;100533.06;;;24.51;65.28
21706;BME280;11014;53.076;18.208;2023-09-19T09:17:47;100540.19;;;24.52;64.28
21706;BME280;11014;53.076;18.208;2023-09-19T09:20:17;100550.81;;;24.71;64.04
21706;BME280;11014;53.076;18.208;2023-09-19T09:23:05;100540.00;;;24.92;62.69
21706;BME280;11014;53.076;18.208;2023-09-19T09:25:52;100539.31;;;24.95;62.16
21706;BME280;11014;53.076;18.208;2023-09-19T09:28:27;100539.19;;;24.83;61.34
21706;BME280;11014;53.076;18.208;2023-09-19T09:31:00;100545.34;;;24.80;60.83
21706;BME280;11014;53.076;18.208;2023-09-19T09:33:36;100561.00;;;24.70;60.51
21706;BME280;11014;53.076;18.208;2023-09-19T09:36:10;100549.88;;;24.67;60.56
21706;BME280;11014;53.076;18.208;2023-09-19T09:38:47;100556.78;;;24.73;60.81
21706;BME280;11014;53.076;18.208;2023-09-19T09:41:36;100565.69;;;24.87;60.82
21706;BME280;11014;53.076;18.208;2023-09-19T09:44:13;100554.03;;;24.99;60.98
21706;BME280;11014;53.076;18.208;2023-09-19T09:46:48;100554.31;;;25.06;60.02
21706;BME280;11014;53.076;18.208;2023-09-19T09:49:24;100555.28;;;25.10;60.03
21706;BME280;11014;53.076;18.208;2023-09-19T09:52:05;100548.47;;;25.16;59.84
21706;BME280;11014;53.076;18.208;2023-09-19T09:55:02;100552.34;;;25.15;58.86
21706;BME280;11014;53.076;18.208;2023-09-19T09:57:36;100557.19;;;25.18;59.23
21706;BME280;11014;53.076;18.208;2023-09-19T10:00:05;100551.50;;;25.23;59.17
21706;BME280;11014;53.076;18.208;2023-09-19T10:02:40;100554.22;;;25.31;59.26
21706;BME280;11014;53.076;18.208;2023-09-19T10:05:20;100562.28;;;25.37;59.24
21706;BME280;11014;53.076;18.208;2023-09-19T10:07:51;100558.72;;;25.36;58.90
21706;BME280;11014;53.076;18.208;2023-09-19T10:10:48;100564.38;;;25.40;58.05
21706;BME280;11014;53.076;18.208;2023-09-19T10:13:35;100561.38;;;25.24;58.56
21706;BME280;11014;53.076;18.208;2023-09-19T10:16:06;100566.88;;;25.24;58.54
21706;BME280;11014;53.076;18.208;2023-09-19T10:18:39;100567.78;;;25.37;58.43
21706;BME280;11014;53.076;18.208;2023-09-19T10:21:11;100569.94;;;25.60;58.04
21706;BME280;11014;53.076;18.208;2023-09-19T10:23:42;100576.88;;;25.66;57.49
21706;BME280;11014;53.076;18.208;2023-09-19T10:26:17;100585.13;;;25.66;56.56
21706;BME280;11014;53.076;18.208;2023-09-19T10:28:49;100587.56;;;25.68;54.20
21706;BME280;11014;53.076;18.208;2023-09-19T10:31:20;100591.28;;;25.63;52.98
21706;BME280;11014;53.076;18.208;2023-09-19T10:33:53;100602.03;;;25.56;52.83
21706;BME280;11014;53.076;18.208;2023-09-19T10:36:24;100597.47;;;25.60;53.22
21706;BME280;11014;53.076;18.208;2023-09-19T10:38:57;100597.97;;;25.62;52.16
21706;BME280;11014;53.076;18.208;2023-09-19T10:41:29;100606.69;;;25.64;52.16
21706;BME280;11014;53.076;18.208;2023-09-19T10:44:03;100602.84;;;25.86;51.40
21706;BME280;11014;53.076;18.208;2023-09-19T10:46:33;100606.59;;;25.81;51.51
21706;BME280;11014;53.076;18.208;2023-09-19T10:49:02;100612.56;;;25.83;50.81
21706;BME280;11014;53.076;18.208;2023-09-19T10:51:39;100598.59;;;25.88;50.41
21706;BME280;11014;53.076;18.208;2023-09-19T10:54:12;100597.13;;;25.91;50.11
21706;BME280;11014;53.076;18.208;2023-09-19T10:56:50;100598.09;;;25.95;50.25
21706;BME280;11014;53.076;18.208;2023-09-19T10:59:22;100597.59;;;25.93;49.47
21706;BME280;11014;53.076;18.208;2023-09-19T11:01:53;100584.94;;;26.01;49.87
21706;BME280;11014;53.076;18.208;2023-09-19T11:04:28;100591.03;;;26.15;49.87
21706;BME280;11014;53.076;18.208;2023-09-19T11:07:10;100587.41;;;26.23;49.07
21706;BME280;11014;53.076;18.208;2023-09-19T11:09:54;100581.06;;;26.43;49.09
21706;BME280;11014;53.076;18.208;2023-09-19T11:14:58;100577.53;;;26.75;47.88
21706;BME280;11014;53.076;18.208;2023-09-19T11:17:34;100567.50;;;26.91;47.84
21706;BME280;11014;53.076;18.208;2023-09-19T11:30:48;100598.53;;;27.00;42.32
21706;BME280;11014;53.076;18.208;2023-09-19T11:33:30;100600.13;;;26.89;42.76
21706;BME280;11014;53.076;18.208;2023-09-19T11:49:28;100602.97;;;27.26;42.09
21706;BME280;11014;53.076;18.208;2023-09-19T11:52:00;100591.41;;;27.44;41.27
21706;BME280;11014;53.076;18.208;2023-09-19T11:54:36;100605.59;;;28.31;39.88
21706;BME280;11014;53.076;18.208;2023-09-19T11:57:09;100632.56;;;28.62;39.40
21706;BME280;11014;53.076;18.208;2023-09-19T11:59:38;100625.03;;;28.47;39.74
21706;BME280;11014;53.076;18.208;2023-09-19T12:02:12;100616.53;;;28.40;40.47
21706;BME280;11014;53.076;18.208;2023-09-19T12:04:46;100628.31;;;28.25;39.74
21706;BME280;11014;53.076;18.208;2023-09-19T12:07:17;100645.69;;;27.89;39.69
21706;BME280;11014;53.076;18.208;2023-09-19T12:10:13;100638.66;;;27.79;40.67
21706;BME280;11014;53.076;18.208;2023-09-19T12:12:47;100634.56;;;27.73;40.01
21706;BME280;11014;53.076;18.208;2023-09-19T12:15:24;100626.25;;;28.09;39.71
21706;BME280;11014;53.076;18.208;2023-09-19T12:17:57;100625.94;;;28.63;39.57
21706;BME280;11014;53.076;18.208;2023-09-19T12:20:44;100634.84;;;29.27;37.99
21706;BME280;11014;53.076;18.208;2023-09-19T12:23:18;100635.78;;;29.19;38.22
21706;BME280;11014;53.076;18.208;2023-09-19T12:25:49;100635.84;;;29.07;37.99
21706;BME280;11014;53.076;18.208;2023-09-19T12:28:26;100632.91;;;29.00;38.46
21706;BME280;11014;53.076;18.208;2023-09-19T12:30:55;100637.28;;;29.29;37.51
21706;BME280;11014;53.076;18.208;2023-09-19T12:36:48;100637.84;;;30.51;34.10
21706;BME280;11014;53.076;18.208;2023-09-19T12:47:40;100639.63;;;32.11;30.21
21706;BME280;11014;53.076;18.208;2023-09-19T12:50:29;100642.59;;;30.89;31.50
21706;BME280;11014;53.076;18.208;2023-09-19T12:52:58;100647.94;;;30.24;32.64
21706;BME280;11014;53.076;18.208;2023-09-19T12:55:32;100655.88;;;29.91;33.74
21706;BME280;11014;53.076;18.208;2023-09-19T12:58:15;100654.41;;;29.66;34.12
21706;BME280;11014;53.076;18.208;2023-09-19T13:00:47;100666.03;;;29.71;34.32
21706;BME280;11014;53.076;18.208;2023-09-19T13:06:36;100664.56;;;30.24;33.47
21706;BME280;11014;53.076;18.208;2023-09-19T13:10:04;100655.22;;;31.05;31.10
21706;BME280;11014;53.076;18.208;2023-09-19T13:29:15;100672.03;;;33.19;26.26
21706;BME280;11014;53.076;18.208;2023-09-19T13:31:48;100684.25;;;33.44;26.41
21706;BME280;11014;53.076;18.208;2023-09-19T13:38:28;100674.09;;;34.10;26.21
21706;BME280;11014;53.076;18.208;2023-09-19T13:41:16;100688.78;;;33.59;26.47
21706;BME280;11014;53.076;18.208;2023-09-19T13:43:46;100691.13;;;32.57;26.55
21706;BME280;11014;53.076;18.208;2023-09-19T13:46:42;100680.69;;;31.30;28.17
21706;BME280;11014;53.076;18.208;2023-09-19T13:49:16;100673.34;;;31.41;28.47
21706;BME280;11014;53.076;18.208;2023-09-19T13:51:59;100685.34;;;31.68;28.26
21706;BME280;11014;53.076;18.208;2023-09-19T13:55:20;100671.03;;;32.41;27.91
21706;BME280;11014;53.076;18.208;2023-09-19T13:58:51;100658.88;;;32.82;27.25
21706;BME280;11014;53.076;18.208;2023-09-19T14:01:26;100668.50;;;33.22;27.00
21706;BME280;11014;53.076;18.208;2023-09-19T14:04:21;100688.25;;;33.50;26.55
21706;BME280;11014;53.076;18.208;2023-09-19T14:10:38;100685.47;;;33.90;25.78
21706;BME280;11014;53.076;18.208;2023-09-19T14:18:55;100681.50;;;32.51;26.99
21706;BME280;11014;53.076;18.208;2023-09-19T14:26:48;100673.91;;;31.28;28.55
21706;BME280;11014;53.076;18.208;2023-09-19T14:29:47;100672.22;;;31.46;29.73
21706;BME280;11014;53.076;18.208;2023-09-19T14:32:32;100690.66;;;31.77;28.36
21706;BME280;11014;53.076;18.208;2023-09-19T14:35:07;100688.69;;;31.54;28.07
21706;BME280;11014;53.076;18.208;2023-09-19T14:37:45;100684.97;;;31.47;28.05
21706;BME280;11014;53.076;18.208;2023-09-19T14:41:07;100693.34;;;31.50;28.23
21706;BME280;11014;53.076;18.208;2023-09-19T14:44:02;100697.44;;;31.56;28.63
21706;BME280;11014;53.076;18.208;2023-09-19T14:46:55;100684.72;;;31.78;28.52
21706;BME280;11014;53.076;18.208;2023-09-19T14:49:26;100693.84;;;32.24;27.63